createdAt,value
2022-09-13T00:00:41.109Z,89.73
2022-09-13T00:05:03.100Z,89.84
2022-09-13T00:09:24.817Z,90.05
2022-09-13T00:13:47.249Z,90.12
2022-09-13T00:18:09.165Z,90.04
2022-09-13T00:22:31.018Z,90.21
2022-09-13T00:26:53.049Z,89.69
2022-09-13T00:31:15.207Z,90.40
2022-09-13T00:35:43.473Z,90.16
2022-09-13T00:40:12.402Z,89.91
2022-09-13T00:44:59.017Z,90.39
2022-09-13T00:49:34.395Z,90.34
2022-09-13T00:53:59.556Z,90.60
2022-09-13T00:58:28.478Z,90.55
2022-09-13T01:02:55.539Z,91.22
2022-09-13T01:07:24.477Z,91.23
2022-09-13T01:11:55.637Z,91.50
2022-09-13T01:16:18.384Z,91.76
2022-09-13T01:20:48.073Z,91.35
2022-09-13T01:25:39.764Z,91.47
2022-09-13T01:30:09.341Z,91.78
2022-09-13T01:34:46.355Z,92.08
2022-09-13T01:39:13.133Z,92.40
2022-09-13T01:44:12.638Z,91.75
2022-09-13T01:48:37.225Z,92.45
2022-09-13T01:53:12.531Z,92.34
2022-09-13T01:57:43.265Z,92.46
2022-09-13T02:02:18.390Z,92.50
2022-09-13T02:06:50.537Z,92.14
2022-09-13T02:11:25.433Z,92.44
2022-09-13T02:15:51.869Z,92.46
2022-09-13T02:20:28.543Z,92.81
2022-09-13T02:24:55.738Z,92.91
2022-09-13T02:29:22.337Z,93.46
2022-09-13T02:33:49.507Z,92.94
2022-09-13T02:38:17.992Z,92.77
2022-09-13T02:42:48.873Z,92.42
2022-09-13T02:47:31.585Z,91.94
2022-09-13T02:52:04.673Z,92.40
2022-09-13T02:56:34.437Z,91.79
2022-09-13T03:00:56.325Z,92.23
2022-09-13T03:05:18.158Z,92.71
2022-09-13T03:09:46.509Z,92.72
2022-09-13T03:14:28.662Z,93.21
2022-09-13T03:19:09.514Z,93.25
2022-09-13T03:24:02.223Z,94.17
2022-09-13T03:28:34.572Z,94.73
2022-09-13T03:33:11.012Z,94.51
2022-09-13T03:37:32.703Z,94.14
2022-09-13T03:42:00.600Z,93.59
2022-09-13T03:46:31.067Z,93.37
2022-09-13T03:50:52.949Z,93.69
2022-09-13T03:55:21.645Z,93.98
2022-09-13T03:59:59.937Z,93.25
2022-09-13T04:04:24.416Z,93.53
2022-09-13T04:09:15.145Z,94.57
2022-09-13T04:13:43.972Z,94.74
2022-09-13T04:18:12.310Z,94.25
2022-09-13T04:22:53.704Z,93.46
2022-09-13T04:27:20.912Z,93.57
2022-09-13T04:36:30.231Z,93.22
2022-09-13T04:41:11.791Z,93.40
2022-09-13T04:45:33.581Z,93.82
2022-09-13T04:49:55.613Z,93.80
2022-09-13T04:54:18.304Z,93.71
2022-09-13T04:58:42.028Z,93.50
2022-09-13T05:03:03.782Z,93.28
2022-09-13T05:07:25.546Z,93.28
2022-09-13T05:11:47.242Z,92.88
2022-09-13T05:16:10.209Z,92.58
2022-09-13T05:20:32.069Z,93.27
2022-09-13T05:24:53.951Z,93.85
2022-09-13T05:29:15.705Z,94.03
2022-09-13T05:33:50.437Z,94.33
2022-09-13T05:58:24.174Z,93.38
2022-09-13T06:08:42.615Z,94.29
2022-09-13T06:13:45.046Z,93.88
2022-09-13T06:18:09.601Z,93.26
2022-09-13T06:23:06.729Z,93.00
2022-09-13T06:27:31.620Z,92.52
2022-09-13T06:31:53.316Z,91.22
2022-09-13T06:36:20.161Z,90.12
2022-09-13T06:40:42.667Z,90.51
2022-09-13T06:45:05.299Z,89.28
2022-09-13T06:49:29.153Z,88.21
2022-09-13T06:53:52.158Z,87.70
2022-09-13T06:58:14.339Z,88.25
2022-09-13T07:02:42.634Z,88.84
2022-09-13T07:07:04.497Z,89.13
2022-09-13T07:11:30.710Z,88.34
2022-09-13T07:15:52.723Z,86.61
2022-09-13T07:20:15.066Z,85.63
2022-09-13T07:24:43.770Z,84.82
2022-09-13T07:29:08.339Z,83.37
2022-09-13T07:33:30.054Z,81.86
2022-09-13T07:37:51.902Z,81.58
2022-09-13T07:42:19.630Z,80.24
2022-09-13T07:46:49.734Z,77.51
2022-09-13T07:51:14.326Z,77.15
2022-09-13T07:55:42.703Z,77.76
2022-09-13T08:00:11.629Z,77.47
2022-09-13T08:04:36.326Z,76.64
2022-09-13T08:09:05.593Z,74.48
2022-09-13T08:13:28.737Z,73.75
2022-09-13T08:17:50.610Z,74.49
2022-09-13T08:22:12.382Z,75.01
2022-09-13T08:27:03.274Z,75.16
2022-09-13T08:36:08.671Z,73.83
2022-09-13T08:40:55.726Z,72.29
2022-09-13T08:45:17.706Z,72.15
2022-09-13T08:49:55.245Z,72.95
2022-09-13T08:54:46.049Z,72.41
2022-09-13T09:14:36.019Z,65.14
2022-09-13T09:19:23.670Z,63.20
2022-09-13T09:24:19.528Z,63.19
2022-09-13T09:34:39.287Z,63.60
2022-09-13T09:49:48.794Z,61.47
2022-09-13T09:54:17.782Z,60.41
2022-09-13T10:03:44.955Z,59.59
2022-09-13T10:08:30.133Z,57.35
2022-09-13T10:13:14.740Z,55.92
2022-09-13T10:18:21.154Z,54.50
2022-09-13T10:23:30.990Z,53.43
2022-09-13T10:28:04.301Z,52.00
2022-09-13T10:32:52.111Z,51.08
2022-09-13T10:42:09.653Z,51.55
2022-09-13T10:47:02.373Z,51.46
2022-09-13T10:51:50.101Z,51.39
2022-09-13T10:56:41.092Z,49.73
2022-09-13T11:16:59.851Z,48.92
2022-09-13T12:07:34.747Z,42.24
2022-09-13T12:12:22.495Z,41.78
2022-09-13T12:17:12.110Z,41.04
2022-09-13T12:21:41.795Z,40.59
2022-09-13T12:26:27.750Z,40.11
2022-09-13T12:30:59.794Z,39.72
2022-09-13T12:35:26.137Z,40.04
2022-09-13T12:40:18.684Z,39.90
2022-09-13T12:44:49.166Z,40.31
2022-09-13T12:49:33.091Z,39.78
2022-09-13T12:54:49.214Z,38.22
2022-09-13T12:59:30.987Z,37.84
2022-09-13T13:04:01.210Z,38.13
2022-09-13T13:08:29.861Z,38.03
2022-09-13T13:12:55.654Z,38.00
2022-09-13T13:22:55.180Z,37.37
2022-09-13T13:27:36.493Z,37.91
2022-09-13T13:32:12.286Z,36.52
2022-09-13T13:41:36.757Z,35.17
2022-09-13T13:46:38.537Z,35.89
2022-09-13T13:51:19.066Z,36.25
2022-09-13T13:55:50.174Z,36.36
2022-09-13T14:00:17.430Z,36.76
2022-09-13T14:04:47.706Z,37.34
2022-09-13T14:09:18.406Z,38.22
2022-09-13T14:13:59.498Z,38.99
2022-09-13T14:18:46.238Z,38.73
2022-09-13T14:23:23.108Z,39.57
2022-09-13T14:27:45.880Z,39.55
2022-09-13T14:32:16.107Z,40.23
2022-09-13T14:36:37.845Z,39.76
2022-09-13T14:41:13.819Z,39.52
2022-09-13T14:45:38.416Z,40.08
2022-09-13T14:50:19.564Z,40.09
2022-09-13T14:54:50.995Z,41.55
2022-09-13T14:59:40.957Z,42.44
2022-09-13T15:04:05.592Z,42.49
2022-09-13T15:08:47.002Z,44.41
2022-09-13T15:13:10.531Z,43.86
2022-09-13T15:17:51.366Z,45.63
2022-09-13T15:22:18.331Z,45.16
2022-09-13T15:26:46.917Z,46.33
2022-09-13T15:31:08.785Z,48.74
2022-09-13T15:35:35.897Z,49.35
2022-09-13T15:40:14.620Z,50.30
2022-09-13T15:44:40.699Z,50.24
2022-09-13T15:49:10.300Z,49.14
2022-09-13T15:53:31.957Z,47.97
2022-09-13T15:57:55.009Z,45.75
2022-09-13T16:02:28.517Z,44.06
2022-09-13T16:06:50.409Z,43.21
2022-09-13T16:11:12.084Z,43.25
2022-09-13T16:15:33.793Z,44.26
2022-09-13T16:19:56.205Z,44.54
2022-09-13T16:24:17.890Z,45.97
2022-09-13T16:28:39.592Z,45.50
2022-09-13T16:33:02.031Z,44.99
2022-09-13T16:37:29.941Z,45.44
2022-09-13T16:41:51.620Z,46.91
2022-09-13T16:46:19.099Z,47.56
2022-09-13T16:55:56.122Z,49.77
2022-09-13T17:00:33.718Z,49.96
2022-09-13T17:05:02.462Z,53.03
2022-09-13T17:09:52.224Z,54.77
2022-09-13T17:14:21.820Z,55.79
2022-09-13T17:18:48.932Z,57.48
2022-09-13T17:23:15.342Z,57.07
2022-09-13T17:27:44.633Z,57.46
2022-09-13T17:36:53.809Z,58.35
2022-09-13T17:41:31.798Z,60.57
2022-09-13T17:46:14.468Z,61.44
2022-09-13T17:50:39.393Z,61.44
2022-09-13T17:55:34.574Z,62.04
2022-09-13T18:00:04.538Z,60.81
2022-09-13T18:04:33.021Z,62.15
2022-09-13T18:09:05.803Z,63.03
2022-09-13T18:13:54.936Z,63.11
2022-09-13T18:18:27.117Z,64.17
2022-09-13T18:22:57.795Z,64.97
2022-09-13T18:27:25.543Z,65.25
2022-09-13T18:31:47.310Z,66.33
2022-09-13T18:36:14.961Z,67.26
2022-09-13T18:40:46.955Z,68.82
2022-09-13T18:45:13.133Z,69.96
2022-09-13T18:49:35.222Z,71.51
2022-09-13T18:54:05.517Z,72.26
2022-09-13T18:58:33.001Z,71.94
2022-09-13T19:03:11.780Z,72.14
2022-09-13T19:07:36.018Z,73.12
2022-09-13T19:12:04.511Z,73.76
2022-09-13T19:16:53.465Z,74.47
2022-09-13T19:21:21.999Z,74.07
2022-09-13T19:25:44.314Z,74.25
2022-09-13T19:30:08.116Z,74.27
2022-09-13T19:34:29.813Z,72.42
2022-09-13T19:38:53.565Z,70.35
2022-09-13T19:43:15.368Z,69.14
2022-09-13T19:48:27.752Z,68.16
2022-09-13T19:52:26.235Z,67.84
2022-09-13T19:56:48.034Z,67.51
2022-09-13T20:01:22.475Z,67.42
2022-09-13T20:05:44.266Z,68.47
2022-09-13T20:10:06.541Z,69.14
2022-09-13T20:14:28.500Z,69.23
2022-09-13T20:18:57.314Z,69.64
2022-09-13T20:23:19.206Z,69.95
2022-09-13T20:27:41.455Z,70.08
2022-09-13T20:32:03.651Z,70.01
2022-09-13T20:36:33.358Z,69.91
2022-09-13T20:40:55.078Z,69.65
2022-09-13T20:45:30.449Z,70.07
2022-09-13T20:49:59.188Z,70.03
2022-09-13T20:54:21.017Z,70.52
2022-09-13T20:58:44.422Z,70.63
2022-09-13T21:02:46.579Z,70.62
2022-09-13T21:07:09.824Z,71.18
2022-09-13T21:11:25.071Z,71.40
2022-09-13T21:15:33.337Z,71.34
2022-09-13T21:19:42.719Z,71.67
2022-09-13T21:23:44.699Z,71.72
2022-09-13T21:27:46.627Z,72.26
2022-09-13T21:31:49.699Z,72.41
2022-09-13T21:35:52.539Z,72.43
2022-09-13T21:39:53.912Z,72.48
2022-09-13T21:44:02.259Z,72.08
2022-09-13T21:48:04.052Z,72.41
2022-09-13T21:52:05.542Z,72.07
2022-09-13T21:56:10.138Z,72.01
2022-09-13T22:00:20.192Z,72.12
2022-09-13T22:04:24.256Z,72.67
2022-09-13T22:08:25.698Z,72.59
2022-09-13T22:12:27.406Z,72.81
2022-09-13T22:16:31.607Z,72.78
2022-09-13T22:20:36.020Z,72.58
2022-09-13T22:24:44.151Z,71.67
2022-09-13T22:28:48.338Z,74.18
2022-09-13T22:32:49.849Z,75.27
2022-09-13T22:36:54.431Z,80.49
2022-09-13T22:41:01.327Z,82.86
2022-09-13T22:45:02.974Z,85.25
2022-09-13T22:49:05.550Z,87.57
2022-09-13T22:53:13.205Z,88.98
2022-09-13T22:57:14.587Z,89.31
2022-09-13T23:01:18.788Z,89.55
2022-09-13T23:05:20.164Z,89.96
2022-09-13T23:09:21.574Z,90.25
2022-09-13T23:13:23.306Z,90.65
2022-09-13T23:17:24.681Z,91.11
2022-09-13T23:21:29.521Z,90.53
2022-09-13T23:25:32.548Z,90.59
2022-09-13T23:29:33.892Z,90.32
2022-09-13T23:33:38.741Z,90.73
2022-09-13T23:37:46.557Z,90.93
2022-09-13T23:41:49.373Z,91.31
2022-09-13T23:45:51.322Z,91.45
2022-09-13T23:49:52.701Z,91.96
2022-09-13T23:54:07.341Z,92.28
2022-09-13T23:58:08.705Z,91.82
